sensor_id;sensor_type;location;lat;lon;timestamp;P1;durP1;ratioP1;P2;durP2;ratioP2
6566;SDS011;3317;43.994;22.878;2022-10-16T00:00:40;10.13;;;6.40;;
6566;SDS011;3317;43.994;22.878;2022-10-16T00:03:08;13.23;;;7.97;;
6566;SDS011;3317;43.994;22.878;2022-10-16T00:05:38;11.20;;;7.07;;
6566;SDS011;3317;43.994;22.878;2022-10-16T00:08:08;10.00;;;7.27;;
6566;SDS011;3317;43.994;22.878;2022-10-16T00:10:36;9.30;;;6.60;;
6566;SDS011;3317;43.994;22.878;2022-10-16T00:13:03;10.50;;;6.87;;
6566;SDS011;3317;43.994;22.878;2022-10-16T00:15:32;12.47;;;7.30;;
6566;SDS011;3317;43.994;22.878;2022-10-16T00:18:01;12.73;;;7.67;;
6566;SDS011;3317;43.994;22.878;2022-10-16T00:20:28;13.27;;;7.80;;
6566;SDS011;3317;43.994;22.878;2022-10-16T00:22:56;10.90;;;6.73;;
6566;SDS011;3317;43.994;22.878;2022-10-16T00:25:24;13.60;;;7.77;;
6566;SDS011;3317;43.994;22.878;2022-10-16T00:27:51;10.47;;;6.60;;
6566;SDS011;3317;43.994;22.878;2022-10-16T00:30:18;9.57;;;7.03;;
6566;SDS011;3317;43.994;22.878;2022-10-16T00:32:45;10.20;;;7.40;;
6566;SDS011;3317;43.994;22.878;2022-10-16T00:35:12;12.40;;;8.27;;
6566;SDS011;3317;43.994;22.878;2022-10-16T00:37:39;9.70;;;7.10;;
6566;SDS011;3317;43.994;22.878;2022-10-16T00:40:07;10.10;;;7.20;;
6566;SDS011;3317;43.994;22.878;2022-10-16T00:42:35;9.50;;;7.20;;
6566;SDS011;3317;43.994;22.878;2022-10-16T00:45:03;10.70;;;7.33;;
6566;SDS011;3317;43.994;22.878;2022-10-16T00:47:32;10.33;;;6.03;;
6566;SDS011;3317;43.994;22.878;2022-10-16T00:50:04;10.93;;;7.57;;
6566;SDS011;3317;43.994;22.878;2022-10-16T00:52:34;11.60;;;6.70;;
6566;SDS011;3317;43.994;22.878;2022-10-16T00:55:03;9.80;;;6.80;;
6566;SDS011;3317;43.994;22.878;2022-10-16T00:57:32;9.87;;;7.10;;
6566;SDS011;3317;43.994;22.878;2022-10-16T01:00:02;10.23;;;6.30;;
6566;SDS011;3317;43.994;22.878;2022-10-16T01:02:30;8.97;;;6.40;;
6566;SDS011;3317;43.994;22.878;2022-10-16T01:04:57;11.20;;;7.30;;
6566;SDS011;3317;43.994;22.878;2022-10-16T01:07:30;12.13;;;6.40;;
6566;SDS011;3317;43.994;22.878;2022-10-16T01:10:10;13.20;;;7.90;;
6566;SDS011;3317;43.994;22.878;2022-10-16T01:12:48;11.13;;;7.07;;
6566;SDS011;3317;43.994;22.878;2022-10-16T01:15:21;9.97;;;6.40;;
6566;SDS011;3317;43.994;22.878;2022-10-16T01:17:53;16.93;;;7.83;;
6566;SDS011;3317;43.994;22.878;2022-10-16T01:20:27;13.33;;;7.53;;
6566;SDS011;3317;43.994;22.878;2022-10-16T01:23:09;11.60;;;7.20;;
6566;SDS011;3317;43.994;22.878;2022-10-16T01:25:50;9.70;;;6.67;;
6566;SDS011;3317;43.994;22.878;2022-10-16T01:28:36;9.97;;;6.17;;
6566;SDS011;3317;43.994;22.878;2022-10-16T01:31:06;11.50;;;7.07;;
6566;SDS011;3317;43.994;22.878;2022-10-16T01:33:37;11.90;;;6.90;;
6566;SDS011;3317;43.994;22.878;2022-10-16T01:36:10;10.27;;;6.43;;
6566;SDS011;3317;43.994;22.878;2022-10-16T01:38:40;13.67;;;7.37;;
6566;SDS011;3317;43.994;22.878;2022-10-16T01:41:11;12.10;;;6.93;;
6566;SDS011;3317;43.994;22.878;2022-10-16T01:43:45;13.70;;;7.30;;
6566;SDS011;3317;43.994;22.878;2022-10-16T01:46:18;9.73;;;7.07;;
6566;SDS011;3317;43.994;22.878;2022-10-16T01:48:47;9.53;;;6.70;;
6566;SDS011;3317;43.994;22.878;2022-10-16T01:51:16;11.23;;;6.80;;
6566;SDS011;3317;43.994;22.878;2022-10-16T01:53:46;13.90;;;6.67;;
6566;SDS011;3317;43.994;22.878;2022-10-16T01:56:15;10.87;;;7.40;;
6566;SDS011;3317;43.994;22.878;2022-10-16T01:58:47;12.30;;;7.00;;
6566;SDS011;3317;43.994;22.878;2022-10-16T02:01:19;13.93;;;7.90;;
6566;SDS011;3317;43.994;22.878;2022-10-16T02:03:49;11.50;;;7.73;;
6566;SDS011;3317;43.994;22.878;2022-10-16T02:06:19;9.63;;;7.13;;
6566;SDS011;3317;43.994;22.878;2022-10-16T02:08:47;13.60;;;8.20;;
6566;SDS011;3317;43.994;22.878;2022-10-16T02:11:14;13.97;;;7.50;;
6566;SDS011;3317;43.994;22.878;2022-10-16T02:13:43;11.30;;;7.80;;
6566;SDS011;3317;43.994;22.878;2022-10-16T02:16:14;11.33;;;7.27;;
6566;SDS011;3317;43.994;22.878;2022-10-16T02:18:42;9.50;;;7.17;;
6566;SDS011;3317;43.994;22.878;2022-10-16T02:21:11;8.53;;;6.00;;
6566;SDS011;3317;43.994;22.878;2022-10-16T02:23:45;9.90;;;6.50;;
6566;SDS011;3317;43.994;22.878;2022-10-16T02:26:19;11.03;;;7.60;;
6566;SDS011;3317;43.994;22.878;2022-10-16T02:28:54;12.67;;;7.40;;
6566;SDS011;3317;43.994;22.878;2022-10-16T02:31:28;9.37;;;6.80;;
6566;SDS011;3317;43.994;22.878;2022-10-16T02:33:59;10.87;;;6.40;;
6566;SDS011;3317;43.994;22.878;2022-10-16T02:36:30;12.70;;;7.60;;
6566;SDS011;3317;43.994;22.878;2022-10-16T02:38:58;14.63;;;7.77;;
6566;SDS011;3317;43.994;22.878;2022-10-16T02:41:26;10.83;;;7.40;;
6566;SDS011;3317;43.994;22.878;2022-10-16T02:43:54;9.03;;;7.03;;
6566;SDS011;3317;43.994;22.878;2022-10-16T02:46:21;12.33;;;7.83;;
6566;SDS011;3317;43.994;22.878;2022-10-16T02:48:49;10.17;;;6.97;;
6566;SDS011;3317;43.994;22.878;2022-10-16T02:51:16;10.73;;;7.30;;
6566;SDS011;3317;43.994;22.878;2022-10-16T02:53:43;12.20;;;8.30;;
6566;SDS011;3317;43.994;22.878;2022-10-16T02:56:10;14.40;;;7.47;;
6566;SDS011;3317;43.994;22.878;2022-10-16T02:58:37;15.43;;;8.50;;
6566;SDS011;3317;43.994;22.878;2022-10-16T03:01:04;13.43;;;8.27;;
6566;SDS011;3317;43.994;22.878;2022-10-16T03:03:31;12.10;;;7.80;;
6566;SDS011;3317;43.994;22.878;2022-10-16T03:05:59;12.13;;;8.10;;
6566;SDS011;3317;43.994;22.878;2022-10-16T03:08:26;15.73;;;8.23;;
6566;SDS011;3317;43.994;22.878;2022-10-16T03:10:54;10.23;;;7.37;;
6566;SDS011;3317;43.994;22.878;2022-10-16T03:13:21;12.10;;;7.27;;
6566;SDS011;3317;43.994;22.878;2022-10-16T03:15:48;13.40;;;8.07;;
6566;SDS011;3317;43.994;22.878;2022-10-16T03:18:15;11.33;;;7.50;;
6566;SDS011;3317;43.994;22.878;2022-10-16T03:20:42;14.30;;;8.07;;
6566;SDS011;3317;43.994;22.878;2022-10-16T03:23:11;12.97;;;8.90;;
6566;SDS011;3317;43.994;22.878;2022-10-16T03:25:38;12.43;;;8.60;;
6566;SDS011;3317;43.994;22.878;2022-10-16T03:28:05;10.57;;;8.07;;
6566;SDS011;3317;43.994;22.878;2022-10-16T03:30:32;11.50;;;8.10;;
6566;SDS011;3317;43.994;22.878;2022-10-16T03:32:59;12.70;;;8.70;;
6566;SDS011;3317;43.994;22.878;2022-10-16T03:35:26;12.13;;;8.23;;
6566;SDS011;3317;43.994;22.878;2022-10-16T03:37:53;12.17;;;8.07;;
6566;SDS011;3317;43.994;22.878;2022-10-16T03:40:21;10.87;;;7.90;;
6566;SDS011;3317;43.994;22.878;2022-10-16T03:42:48;11.37;;;8.07;;
6566;SDS011;3317;43.994;22.878;2022-10-16T03:45:15;12.83;;;9.57;;
6566;SDS011;3317;43.994;22.878;2022-10-16T03:47:42;10.47;;;8.43;;
6566;SDS011;3317;43.994;22.878;2022-10-16T03:50:09;14.23;;;8.60;;
6566;SDS011;3317;43.994;22.878;2022-10-16T03:52:36;14.73;;;9.13;;
6566;SDS011;3317;43.994;22.878;2022-10-16T03:55:03;15.67;;;9.90;;
6566;SDS011;3317;43.994;22.878;2022-10-16T03:57:32;12.90;;;9.50;;
6566;SDS011;3317;43.994;22.878;2022-10-16T03:59:59;16.53;;;9.90;;
6566;SDS011;3317;43.994;22.878;2022-10-16T04:02:26;15.43;;;9.57;;
6566;SDS011;3317;43.994;22.878;2022-10-16T04:04:53;12.00;;;8.27;;
6566;SDS011;3317;43.994;22.878;2022-10-16T04:07:22;13.43;;;8.43;;
6566;SDS011;3317;43.994;22.878;2022-10-16T04:09:48;12.53;;;8.40;;
6566;SDS011;3317;43.994;22.878;2022-10-16T04:12:17;14.30;;;8.77;;
6566;SDS011;3317;43.994;22.878;2022-10-16T04:14:45;13.80;;;7.63;;
6566;SDS011;3317;43.994;22.878;2022-10-16T04:17:12;15.00;;;9.20;;
6566;SDS011;3317;43.994;22.878;2022-10-16T04:19:39;14.07;;;10.13;;
6566;SDS011;3317;43.994;22.878;2022-10-16T04:22:06;13.03;;;8.03;;
6566;SDS011;3317;43.994;22.878;2022-10-16T04:24:33;14.13;;;9.70;;
6566;SDS011;3317;43.994;22.878;2022-10-16T04:27:00;12.63;;;10.27;;
6566;SDS011;3317;43.994;22.878;2022-10-16T04:29:26;12.00;;;9.73;;
6566;SDS011;3317;43.994;22.878;2022-10-16T04:31:55;15.03;;;9.40;;
6566;SDS011;3317;43.994;22.878;2022-10-16T04:34:22;11.90;;;8.90;;
6566;SDS011;3317;43.994;22.878;2022-10-16T04:36:49;16.33;;;9.30;;
6566;SDS011;3317;43.994;22.878;2022-10-16T04:39:16;13.53;;;9.00;;
6566;SDS011;3317;43.994;22.878;2022-10-16T04:41:43;18.73;;;9.10;;
6566;SDS011;3317;43.994;22.878;2022-10-16T04:44:10;21.77;;;10.17;;
6566;SDS011;3317;43.994;22.878;2022-10-16T04:46:37;14.03;;;9.67;;
6566;SDS011;3317;43.994;22.878;2022-10-16T04:49:05;15.70;;;10.27;;
6566;SDS011;3317;43.994;22.878;2022-10-16T04:51:32;14.17;;;10.30;;
6566;SDS011;3317;43.994;22.878;2022-10-16T04:53:59;15.67;;;9.80;;
6566;SDS011;3317;43.994;22.878;2022-10-16T04:56:26;14.27;;;9.70;;
6566;SDS011;3317;43.994;22.878;2022-10-16T04:58:54;14.40;;;10.30;;
6566;SDS011;3317;43.994;22.878;2022-10-16T05:01:21;22.20;;;10.53;;
6566;SDS011;3317;43.994;22.878;2022-10-16T05:03:48;15.23;;;10.00;;
6566;SDS011;3317;43.994;22.878;2022-10-16T05:06:16;13.70;;;10.00;;
6566;SDS011;3317;43.994;22.878;2022-10-16T05:08:43;13.70;;;9.63;;
6566;SDS011;3317;43.994;22.878;2022-10-16T05:11:10;14.50;;;9.70;;
6566;SDS011;3317;43.994;22.878;2022-10-16T05:13:37;14.30;;;9.50;;
6566;SDS011;3317;43.994;22.878;2022-10-16T05:16:04;16.80;;;12.00;;
6566;SDS011;3317;43.994;22.878;2022-10-16T05:18:32;21.37;;;14.20;;
6566;SDS011;3317;43.994;22.878;2022-10-16T05:20:59;19.07;;;13.63;;
6566;SDS011;3317;43.994;22.878;2022-10-16T05:23:27;18.00;;;11.13;;
6566;SDS011;3317;43.994;22.878;2022-10-16T05:25:54;21.07;;;11.90;;
6566;SDS011;3317;43.994;22.878;2022-10-16T05:28:23;15.53;;;10.33;;
6566;SDS011;3317;43.994;22.878;2022-10-16T05:30:50;20.00;;;10.07;;
6566;SDS011;3317;43.994;22.878;2022-10-16T05:33:19;14.83;;;9.93;;
6566;SDS011;3317;43.994;22.878;2022-10-16T05:35:46;13.23;;;9.77;;
6566;SDS011;3317;43.994;22.878;2022-10-16T05:38:14;14.10;;;9.57;;
6566;SDS011;3317;43.994;22.878;2022-10-16T05:40:43;15.67;;;10.43;;
6566;SDS011;3317;43.994;22.878;2022-10-16T05:43:16;15.90;;;10.30;;
6566;SDS011;3317;43.994;22.878;2022-10-16T05:45:43;15.40;;;11.10;;
6566;SDS011;3317;43.994;22.878;2022-10-16T05:48:10;17.07;;;11.73;;
6566;SDS011;3317;43.994;22.878;2022-10-16T05:50:37;13.20;;;9.80;;
6566;SDS011;3317;43.994;22.878;2022-10-16T05:53:04;12.50;;;9.57;;
6566;SDS011;3317;43.994;22.878;2022-10-16T05:55:31;14.30;;;9.80;;
6566;SDS011;3317;43.994;22.878;2022-10-16T05:57:59;15.37;;;10.27;;
6566;SDS011;3317;43.994;22.878;2022-10-16T06:00:26;17.63;;;11.30;;
6566;SDS011;3317;43.994;22.878;2022-10-16T06:02:53;15.90;;;10.27;;
6566;SDS011;3317;43.994;22.878;2022-10-16T06:05:20;14.80;;;10.80;;
6566;SDS011;3317;43.994;22.878;2022-10-16T06:07:47;15.53;;;10.37;;
6566;SDS011;3317;43.994;22.878;2022-10-16T06:10:14;20.40;;;11.60;;
6566;SDS011;3317;43.994;22.878;2022-10-16T06:12:41;20.87;;;12.03;;
6566;SDS011;3317;43.994;22.878;2022-10-16T06:15:10;16.30;;;11.33;;
6566;SDS011;3317;43.994;22.878;2022-10-16T06:17:37;18.97;;;12.00;;
6566;SDS011;3317;43.994;22.878;2022-10-16T06:20:04;11.40;;;8.40;;
6566;SDS011;3317;43.994;22.878;2022-10-16T06:22:31;16.97;;;10.80;;
6566;SDS011;3317;43.994;22.878;2022-10-16T06:24:58;20.63;;;11.60;;
6566;SDS011;3317;43.994;22.878;2022-10-16T06:27:25;16.43;;;11.70;;
6566;SDS011;3317;43.994;22.878;2022-10-16T06:29:52;19.10;;;11.73;;
6566;SDS011;3317;43.994;22.878;2022-10-16T06:32:21;18.90;;;12.27;;
6566;SDS011;3317;43.994;22.878;2022-10-16T06:34:47;19.00;;;12.50;;
6566;SDS011;3317;43.994;22.878;2022-10-16T06:37:14;15.83;;;10.13;;
6566;SDS011;3317;43.994;22.878;2022-10-16T06:39:41;19.87;;;13.40;;
6566;SDS011;3317;43.994;22.878;2022-10-16T06:42:08;13.57;;;9.30;;
6566;SDS011;3317;43.994;22.878;2022-10-16T06:44:35;20.43;;;13.07;;
6566;SDS011;3317;43.994;22.878;2022-10-16T06:47:02;23.63;;;12.53;;
6566;SDS011;3317;43.994;22.878;2022-10-16T06:49:30;16.30;;;12.17;;
6566;SDS011;3317;43.994;22.878;2022-10-16T06:51:57;18.57;;;12.60;;
6566;SDS011;3317;43.994;22.878;2022-10-16T06:54:24;18.87;;;12.97;;
6566;SDS011;3317;43.994;22.878;2022-10-16T06:56:51;19.20;;;12.27;;
6566;SDS011;3317;43.994;22.878;2022-10-16T06:59:19;22.40;;;12.87;;
6566;SDS011;3317;43.994;22.878;2022-10-16T07:01:47;19.83;;;13.97;;
6566;SDS011;3317;43.994;22.878;2022-10-16T07:04:14;20.40;;;15.53;;
6566;SDS011;3317;43.994;22.878;2022-10-16T07:06:42;22.90;;;14.40;;
6566;SDS011;3317;43.994;22.878;2022-10-16T07:09:09;24.03;;;13.70;;
6566;SDS011;3317;43.994;22.878;2022-10-16T07:11:37;26.53;;;12.93;;
6566;SDS011;3317;43.994;22.878;2022-10-16T07:14:09;20.30;;;15.20;;
6566;SDS011;3317;43.994;22.878;2022-10-16T07:16:43;22.67;;;15.57;;
6566;SDS011;3317;43.994;22.878;2022-10-16T07:19:10;20.47;;;13.27;;
6566;SDS011;3317;43.994;22.878;2022-10-16T07:21:39;20.87;;;14.43;;
6566;SDS011;3317;43.994;22.878;2022-10-16T07:24:11;21.93;;;14.37;;
6566;SDS011;3317;43.994;22.878;2022-10-16T07:26:39;29.00;;;15.37;;
6566;SDS011;3317;43.994;22.878;2022-10-16T07:29:08;24.33;;;13.77;;
6566;SDS011;3317;43.994;22.878;2022-10-16T07:31:39;20.47;;;14.90;;
6566;SDS011;3317;43.994;22.878;2022-10-16T07:34:06;23.67;;;13.77;;
6566;SDS011;3317;43.994;22.878;2022-10-16T07:36:33;14.87;;;11.47;;
6566;SDS011;3317;43.994;22.878;2022-10-16T07:39:02;23.23;;;15.03;;
6566;SDS011;3317;43.994;22.878;2022-10-16T07:41:29;17.77;;;13.63;;
6566;SDS011;3317;43.994;22.878;2022-10-16T07:43:58;23.57;;;15.10;;
6566;SDS011;3317;43.994;22.878;2022-10-16T07:46:26;20.90;;;13.83;;
6566;SDS011;3317;43.994;22.878;2022-10-16T07:48:53;20.83;;;14.73;;
6566;SDS011;3317;43.994;22.878;2022-10-16T07:51:23;22.80;;;15.23;;
6566;SDS011;3317;43.994;22.878;2022-10-16T07:53:51;18.83;;;13.30;;
6566;SDS011;3317;43.994;22.878;2022-10-16T07:56:20;27.23;;;14.13;;
6566;SDS011;3317;43.994;22.878;2022-10-16T07:58:48;25.27;;;14.77;;
6566;SDS011;3317;43.994;22.878;2022-10-16T08:01:16;24.80;;;14.50;;
6566;SDS011;3317;43.994;22.878;2022-10-16T08:03:44;25.90;;;15.20;;
6566;SDS011;3317;43.994;22.878;2022-10-16T08:06:13;23.07;;;15.07;;
6566;SDS011;3317;43.994;22.878;2022-10-16T08:08:40;25.37;;;15.67;;
6566;SDS011;3317;43.994;22.878;2022-10-16T08:11:07;19.10;;;14.20;;
6566;SDS011;3317;43.994;22.878;2022-10-16T08:13:35;20.40;;;14.87;;
6566;SDS011;3317;43.994;22.878;2022-10-16T08:16:03;22.33;;;14.73;;
6566;SDS011;3317;43.994;22.878;2022-10-16T08:18:33;21.40;;;15.23;;
6566;SDS011;3317;43.994;22.878;2022-10-16T08:21:01;20.00;;;13.83;;
6566;SDS011;3317;43.994;22.878;2022-10-16T08:23:28;19.50;;;12.93;;
6566;SDS011;3317;43.994;22.878;2022-10-16T08:25:56;21.30;;;14.27;;
6566;SDS011;3317;43.994;22.878;2022-10-16T08:28:30;15.90;;;12.47;;
6566;SDS011;3317;43.994;22.878;2022-10-16T08:31:05;19.57;;;13.90;;
6566;SDS011;3317;43.994;22.878;2022-10-16T08:33:33;19.50;;;14.73;;
6566;SDS011;3317;43.994;22.878;2022-10-16T08:36:01;19.67;;;14.10;;
6566;SDS011;3317;43.994;22.878;2022-10-16T08:38:28;20.60;;;15.13;;
6566;SDS011;3317;43.994;22.878;2022-10-16T08:40:56;23.13;;;14.63;;
6566;SDS011;3317;43.994;22.878;2022-10-16T08:43:39;25.40;;;15.47;;
6566;SDS011;3317;43.994;22.878;2022-10-16T08:46:22;20.03;;;14.20;;
6566;SDS011;3317;43.994;22.878;2022-10-16T08:49:05;20.80;;;13.93;;
6566;SDS011;3317;43.994;22.878;2022-10-16T08:51:37;25.07;;;14.40;;
6566;SDS011;3317;43.994;22.878;2022-10-16T08:54:06;15.93;;;11.47;;
6566;SDS011;3317;43.994;22.878;2022-10-16T08:56:42;21.70;;;14.90;;
6566;SDS011;3317;43.994;22.878;2022-10-16T08:59:09;20.77;;;13.47;;
6566;SDS011;3317;43.994;22.878;2022-10-16T09:01:40;29.13;;;15.10;;
6566;SDS011;3317;43.994;22.878;2022-10-16T09:04:17;21.50;;;15.50;;
6566;SDS011;3317;43.994;22.878;2022-10-16T09:07:08;17.77;;;11.63;;
6566;SDS011;3317;43.994;22.878;2022-10-16T09:09:46;21.07;;;14.47;;
6566;SDS011;3317;43.994;22.878;2022-10-16T09:12:28;18.57;;;14.03;;
6566;SDS011;3317;43.994;22.878;2022-10-16T09:15:07;21.53;;;13.80;;
6566;SDS011;3317;43.994;22.878;2022-10-16T09:17:48;21.00;;;13.00;;
6566;SDS011;3317;43.994;22.878;2022-10-16T09:20:29;17.10;;;12.27;;
6566;SDS011;3317;43.994;22.878;2022-10-16T09:23:08;21.77;;;14.67;;
6566;SDS011;3317;43.994;22.878;2022-10-16T09:25:43;20.03;;;13.77;;
6566;SDS011;3317;43.994;22.878;2022-10-16T09:28:12;18.13;;;14.23;;
6566;SDS011;3317;43.994;22.878;2022-10-16T09:30:40;20.80;;;14.27;;
6566;SDS011;3317;43.994;22.878;2022-10-16T09:33:09;21.60;;;12.27;;
6566;SDS011;3317;43.994;22.878;2022-10-16T09:35:37;21.23;;;11.87;;
6566;SDS011;3317;43.994;22.878;2022-10-16T09:38:06;16.83;;;11.33;;
6566;SDS011;3317;43.994;22.878;2022-10-16T09:40:34;19.97;;;14.30;;
6566;SDS011;3317;43.994;22.878;2022-10-16T09:43:05;16.03;;;12.33;;
6566;SDS011;3317;43.994;22.878;2022-10-16T09:45:52;19.10;;;13.50;;
6566;SDS011;3317;43.994;22.878;2022-10-16T09:48:22;17.33;;;12.10;;
6566;SDS011;3317;43.994;22.878;2022-10-16T09:50:58;20.33;;;11.30;;
6566;SDS011;3317;43.994;22.878;2022-10-16T09:53:37;19.33;;;13.20;;
6566;SDS011;3317;43.994;22.878;2022-10-16T09:56:06;16.90;;;13.33;;
6566;SDS011;3317;43.994;22.878;2022-10-16T09:58:34;19.33;;;13.33;;
6566;SDS011;3317;43.994;22.878;2022-10-16T10:01:01;16.03;;;11.37;;
6566;SDS011;3317;43.994;22.878;2022-10-16T10:03:33;18.60;;;12.10;;
6566;SDS011;3317;43.994;22.878;2022-10-16T10:06:05;16.77;;;11.83;;
6566;SDS011;3317;43.994;22.878;2022-10-16T10:08:57;16.33;;;12.60;;
6566;SDS011;3317;43.994;22.878;2022-10-16T10:11:38;17.60;;;12.60;;
6566;SDS011;3317;43.994;22.878;2022-10-16T10:14:13;14.30;;;10.47;;
6566;SDS011;3317;43.994;22.878;2022-10-16T10:16:45;19.57;;;12.93;;
6566;SDS011;3317;43.994;22.878;2022-10-16T10:19:16;16.13;;;11.70;;
6566;SDS011;3317;43.994;22.878;2022-10-16T10:21:44;14.93;;;9.80;;
6566;SDS011;3317;43.994;22.878;2022-10-16T10:24:12;16.80;;;9.83;;
6566;SDS011;3317;43.994;22.878;2022-10-16T10:26:41;16.50;;;10.90;;
6566;SDS011;3317;43.994;22.878;2022-10-16T10:29:17;15.40;;;11.00;;
6566;SDS011;3317;43.994;22.878;2022-10-16T10:31:52;16.80;;;11.73;;
6566;SDS011;3317;43.994;22.878;2022-10-16T10:34:34;14.60;;;10.03;;
6566;SDS011;3317;43.994;22.878;2022-10-16T10:37:20;16.23;;;10.33;;
6566;SDS011;3317;43.994;22.878;2022-10-16T10:40:02;16.90;;;9.73;;
6566;SDS011;3317;43.994;22.878;2022-10-16T10:42:40;15.60;;;9.77;;
6566;SDS011;3317;43.994;22.878;2022-10-16T10:45:16;14.60;;;9.40;;
6566;SDS011;3317;43.994;22.878;2022-10-16T10:47:48;11.67;;;8.17;;
6566;SDS011;3317;43.994;22.878;2022-10-16T10:50:25;12.37;;;7.93;;
6566;SDS011;3317;43.994;22.878;2022-10-16T10:53:03;10.90;;;8.53;;
6566;SDS011;3317;43.994;22.878;2022-10-16T10:55:39;15.77;;;8.50;;
6566;SDS011;3317;43.994;22.878;2022-10-16T10:58:32;11.70;;;8.20;;
6566;SDS011;3317;43.994;22.878;2022-10-16T11:01:12;10.60;;;7.50;;
6566;SDS011;3317;43.994;22.878;2022-10-16T11:03:46;11.90;;;7.20;;
6566;SDS011;3317;43.994;22.878;2022-10-16T11:06:36;9.90;;;7.47;;
6566;SDS011;3317;43.994;22.878;2022-10-16T11:09:08;11.43;;;7.23;;
6566;SDS011;3317;43.994;22.878;2022-10-16T11:11:40;9.03;;;6.70;;
6566;SDS011;3317;43.994;22.878;2022-10-16T11:14:13;9.73;;;6.80;;
6566;SDS011;3317;43.994;22.878;2022-10-16T11:16:44;12.37;;;7.00;;
6566;SDS011;3317;43.994;22.878;2022-10-16T11:19:19;9.57;;;6.73;;
6566;SDS011;3317;43.994;22.878;2022-10-16T11:21:55;13.00;;;7.63;;
6566;SDS011;3317;43.994;22.878;2022-10-16T11:24:32;8.10;;;5.77;;
6566;SDS011;3317;43.994;22.878;2022-10-16T11:27:08;10.23;;;6.30;;
6566;SDS011;3317;43.994;22.878;2022-10-16T11:29:40;8.57;;;5.90;;
6566;SDS011;3317;43.994;22.878;2022-10-16T11:32:18;6.90;;;5.47;;
6566;SDS011;3317;43.994;22.878;2022-10-16T11:34:50;10.13;;;5.97;;
6566;SDS011;3317;43.994;22.878;2022-10-16T11:37:22;9.87;;;5.83;;
6566;SDS011;3317;43.994;22.878;2022-10-16T11:39:54;7.57;;;5.50;;
6566;SDS011;3317;43.994;22.878;2022-10-16T11:42:26;9.67;;;5.93;;
6566;SDS011;3317;43.994;22.878;2022-10-16T11:45:00;9.20;;;5.90;;
6566;SDS011;3317;43.994;22.878;2022-10-16T11:47:35;12.37;;;5.70;;
6566;SDS011;3317;43.994;22.878;2022-10-16T11:50:09;7.50;;;5.07;;
6566;SDS011;3317;43.994;22.878;2022-10-16T11:52:49;8.33;;;5.70;;
6566;SDS011;3317;43.994;22.878;2022-10-16T11:55:22;9.27;;;5.03;;
6566;SDS011;3317;43.994;22.878;2022-10-16T11:57:57;11.63;;;5.80;;
6566;SDS011;3317;43.994;22.878;2022-10-16T12:00:30;10.00;;;4.97;;
6566;SDS011;3317;43.994;22.878;2022-10-16T12:03:03;7.73;;;5.67;;
6566;SDS011;3317;43.994;22.878;2022-10-16T12:05:47;7.30;;;4.90;;
6566;SDS011;3317;43.994;22.878;2022-10-16T12:08:26;10.13;;;6.17;;
6566;SDS011;3317;43.994;22.878;2022-10-16T12:10:53;7.67;;;5.40;;
6566;SDS011;3317;43.994;22.878;2022-10-16T12:13:32;7.67;;;5.70;;
6566;SDS011;3317;43.994;22.878;2022-10-16T12:16:04;6.70;;;4.93;;
6566;SDS011;3317;43.994;22.878;2022-10-16T12:18:46;10.83;;;6.00;;
6566;SDS011;3317;43.994;22.878;2022-10-16T12:21:15;10.13;;;5.83;;
6566;SDS011;3317;43.994;22.878;2022-10-16T12:23:49;10.27;;;5.73;;
6566;SDS011;3317;43.994;22.878;2022-10-16T12:26:24;7.80;;;5.20;;
6566;SDS011;3317;43.994;22.878;2022-10-16T12:28:53;8.63;;;5.60;;
6566;SDS011;3317;43.994;22.878;2022-10-16T12:31:20;5.73;;;4.53;;
6566;SDS011;3317;43.994;22.878;2022-10-16T12:33:57;10.23;;;5.67;;
6566;SDS011;3317;43.994;22.878;2022-10-16T12:36:26;9.07;;;5.40;;
6566;SDS011;3317;43.994;22.878;2022-10-16T12:38:57;7.50;;;5.93;;
6566;SDS011;3317;43.994;22.878;2022-10-16T12:41:26;8.60;;;5.10;;
6566;SDS011;3317;43.994;22.878;2022-10-16T12:43:54;10.57;;;5.70;;
6566;SDS011;3317;43.994;22.878;2022-10-16T12:49:06;7.50;;;5.03;;
6566;SDS011;3317;43.994;22.878;2022-10-16T12:51:47;5.47;;;4.53;;
6566;SDS011;3317;43.994;22.878;2022-10-16T12:54:16;9.30;;;5.60;;
6566;SDS011;3317;43.994;22.878;2022-10-16T12:56:48;13.60;;;5.90;;
6566;SDS011;3317;43.994;22.878;2022-10-16T12:59:28;6.30;;;5.30;;
6566;SDS011;3317;43.994;22.878;2022-10-16T13:05:08;6.67;;;4.63;;
6566;SDS011;3317;43.994;22.878;2022-10-16T13:07:49;6.83;;;4.90;;
6566;SDS011;3317;43.994;22.878;2022-10-16T13:10:28;5.93;;;4.97;;
6566;SDS011;3317;43.994;22.878;2022-10-16T13:16:08;6.80;;;4.70;;
6566;SDS011;3317;43.994;22.878;2022-10-16T13:18:48;7.60;;;5.17;;
6566;SDS011;3317;43.994;22.878;2022-10-16T13:21:28;9.20;;;5.00;;
6566;SDS011;3317;43.994;22.878;2022-10-16T13:24:02;10.03;;;4.60;;
6566;SDS011;3317;43.994;22.878;2022-10-16T13:26:44;8.97;;;5.40;;
6566;SDS011;3317;43.994;22.878;2022-10-16T13:29:16;7.63;;;5.20;;
6566;SDS011;3317;43.994;22.878;2022-10-16T13:31:46;7.40;;;4.90;;
6566;SDS011;3317;43.994;22.878;2022-10-16T13:34:14;6.60;;;5.03;;
6566;SDS011;3317;43.994;22.878;2022-10-16T13:36:44;6.73;;;5.10;;
6566;SDS011;3317;43.994;22.878;2022-10-16T13:39:14;9.47;;;5.03;;
6566;SDS011;3317;43.994;22.878;2022-10-16T13:41:44;7.70;;;5.30;;
6566;SDS011;3317;43.994;22.878;2022-10-16T13:44:13;7.10;;;5.33;;
6566;SDS011;3317;43.994;22.878;2022-10-16T13:46:43;7.43;;;4.97;;
6566;SDS011;3317;43.994;22.878;2022-10-16T13:49:12;6.43;;;4.53;;
6566;SDS011;3317;43.994;22.878;2022-10-16T13:51:41;9.80;;;4.87;;
6566;SDS011;3317;43.994;22.878;2022-10-16T13:54:09;6.87;;;5.20;;
6566;SDS011;3317;43.994;22.878;2022-10-16T13:56:38;8.90;;;5.00;;
6566;SDS011;3317;43.994;22.878;2022-10-16T13:59:22;7.73;;;5.33;;
6566;SDS011;3317;43.994;22.878;2022-10-16T14:01:52;11.73;;;4.87;;
6566;SDS011;3317;43.994;22.878;2022-10-16T14:04:21;8.70;;;5.37;;
6566;SDS011;3317;43.994;22.878;2022-10-16T14:06:49;9.07;;;4.97;;
6566;SDS011;3317;43.994;22.878;2022-10-16T14:09:19;5.43;;;4.67;;
6566;SDS011;3317;43.994;22.878;2022-10-16T14:11:50;6.13;;;4.80;;
6566;SDS011;3317;43.994;22.878;2022-10-16T14:14:21;9.73;;;4.90;;
6566;SDS011;3317;43.994;22.878;2022-10-16T14:16:49;6.60;;;4.57;;
6566;SDS011;3317;43.994;22.878;2022-10-16T14:19:18;7.63;;;4.87;;
6566;SDS011;3317;43.994;22.878;2022-10-16T14:21:48;5.50;;;4.53;;
6566;SDS011;3317;43.994;22.878;2022-10-16T14:24:23;7.73;;;5.20;;
6566;SDS011;3317;43.994;22.878;2022-10-16T14:26:52;7.67;;;5.40;;
6566;SDS011;3317;43.994;22.878;2022-10-16T14:29:23;8.17;;;6.10;;
6566;SDS011;3317;43.994;22.878;2022-10-16T14:31:54;9.10;;;6.90;;
6566;SDS011;3317;43.994;22.878;2022-10-16T14:34:26;12.50;;;6.60;;
6566;SDS011;3317;43.994;22.878;2022-10-16T14:36:56;11.33;;;6.47;;
6566;SDS011;3317;43.994;22.878;2022-10-16T14:39:26;8.23;;;6.03;;
6566;SDS011;3317;43.994;22.878;2022-10-16T14:41:54;9.97;;;6.40;;
6566;SDS011;3317;43.994;22.878;2022-10-16T14:44:26;9.20;;;6.50;;
6566;SDS011;3317;43.994;22.878;2022-10-16T14:46:55;8.17;;;6.17;;
6566;SDS011;3317;43.994;22.878;2022-10-16T14:49:22;9.97;;;6.10;;
6566;SDS011;3317;43.994;22.878;2022-10-16T14:51:50;8.50;;;5.33;;
6566;SDS011;3317;43.994;22.878;2022-10-16T14:54:18;8.53;;;5.90;;
6566;SDS011;3317;43.994;22.878;2022-10-16T14:56:46;9.33;;;5.50;;
6566;SDS011;3317;43.994;22.878;2022-10-16T14:59:16;11.40;;;5.90;;
6566;SDS011;3317;43.994;22.878;2022-10-16T15:01:47;9.17;;;5.70;;
6566;SDS011;3317;43.994;22.878;2022-10-16T15:04:14;9.00;;;6.30;;
6566;SDS011;3317;43.994;22.878;2022-10-16T15:06:41;6.97;;;5.57;;
6566;SDS011;3317;43.994;22.878;2022-10-16T15:09:08;8.10;;;5.40;;
6566;SDS011;3317;43.994;22.878;2022-10-16T15:11:35;9.93;;;5.90;;
6566;SDS011;3317;43.994;22.878;2022-10-16T15:14:03;8.20;;;6.40;;